sensor_id;sensor_type;location;lat;lon;timestamp;pressure;altitude;pressure_sealevel;temperature;humidity
46946;BME280;32679;40.810;14.498;2023-03-18T00:01:04;100521.53;;;8.10;69.92
46946;BME280;32679;40.810;14.498;2023-03-18T00:03:35;100510.16;;;8.03;71.00
46946;BME280;32679;40.810;14.498;2023-03-18T00:06:22;100516.44;;;8.12;70.28
46946;BME280;32679;40.810;14.498;2023-03-18T00:08:48;100511.84;;;8.16;69.21
46946;BME280;32679;40.810;14.498;2023-03-18T00:11:16;100520.84;;;8.13;69.99
46946;BME280;32679;40.810;14.498;2023-03-18T00:13:45;100488.47;;;7.84;70.45
46946;BME280;32679;40.810;14.498;2023-03-18T00:16:12;100515.91;;;7.98;71.41
46946;BME280;32679;40.810;14.498;2023-03-18T00:18:44;100518.34;;;7.99;70.78
46946;BME280;32679;40.810;14.498;2023-03-18T00:21:10;100516.09;;;7.93;70.37
46946;BME280;32679;40.810;14.498;2023-03-18T00:23:42;100517.09;;;7.88;70.31
46946;BME280;32679;40.810;14.498;2023-03-18T00:26:15;100517.94;;;7.88;70.95
46946;BME280;32679;40.810;14.498;2023-03-18T00:28:46;100516.97;;;7.84;71.47
46946;BME280;32679;40.810;14.498;2023-03-18T00:31:11;100503.19;;;7.76;72.39
46946;BME280;32679;40.810;14.498;2023-03-18T00:33:40;100509.69;;;7.80;72.15
46946;BME280;32679;40.810;14.498;2023-03-18T00:36:12;100507.72;;;7.80;71.94
46946;BME280;32679;40.810;14.498;2023-03-18T00:38:45;100501.50;;;7.83;71.11
46946;BME280;32679;40.810;14.498;2023-03-18T00:41:14;100507.91;;;7.75;71.27
46946;BME280;32679;40.810;14.498;2023-03-18T00:43:46;100510.22;;;7.73;71.65
46946;BME280;32679;40.810;14.498;2023-03-18T00:46:23;100510.25;;;7.65;72.28
46946;BME280;32679;40.810;14.498;2023-03-18T00:48:53;100507.44;;;7.73;72.90
46946;BME280;32679;40.810;14.498;2023-03-18T00:51:26;100502.81;;;7.77;72.04
46946;BME280;32679;40.810;14.498;2023-03-18T00:53:55;100488.09;;;7.65;71.94
46946;BME280;32679;40.810;14.498;2023-03-18T00:56:26;100489.19;;;7.51;72.09
46946;BME280;32679;40.810;14.498;2023-03-18T00:58:52;100499.81;;;7.41;72.77
46946;BME280;32679;40.810;14.498;2023-03-18T01:01:21;100498.47;;;7.47;73.38
46946;BME280;32679;40.810;14.498;2023-03-18T01:03:49;100486.72;;;7.50;74.38
46946;BME280;32679;40.810;14.498;2023-03-18T01:06:22;100494.97;;;7.58;73.84
46946;BME280;32679;40.810;14.498;2023-03-18T01:08:49;100498.38;;;7.64;73.67
46946;BME280;32679;40.810;14.498;2023-03-18T01:11:16;100487.22;;;7.52;73.33
46946;BME280;32679;40.810;14.498;2023-03-18T01:13:47;100489.78;;;7.57;73.95
46946;BME280;32679;40.810;14.498;2023-03-18T01:16:16;100488.63;;;7.58;73.35
46946;BME280;32679;40.810;14.498;2023-03-18T01:18:51;100483.91;;;7.58;74.32
46946;BME280;32679;40.810;14.498;2023-03-18T01:21:18;100481.34;;;7.53;73.76
46946;BME280;32679;40.810;14.498;2023-03-18T01:23:43;100483.09;;;7.58;74.64
46946;BME280;32679;40.810;14.498;2023-03-18T01:26:11;100482.28;;;7.57;74.10
46946;BME280;32679;40.810;14.498;2023-03-18T01:28:39;100476.88;;;7.61;73.42
46946;BME280;32679;40.810;14.498;2023-03-18T01:31:16;100484.88;;;7.63;72.09
46946;BME280;32679;40.810;14.498;2023-03-18T01:33:46;100475.75;;;7.62;72.52
46946;BME280;32679;40.810;14.498;2023-03-18T01:36:14;100476.88;;;7.61;72.24
46946;BME280;32679;40.810;14.498;2023-03-18T01:38:43;100471.06;;;7.54;71.92
46946;BME280;32679;40.810;14.498;2023-03-18T01:41:13;100468.22;;;7.42;73.00
46946;BME280;32679;40.810;14.498;2023-03-18T01:43:42;100466.78;;;7.35;73.97
46946;BME280;32679;40.810;14.498;2023-03-18T01:49:10;100478.97;;;7.34;75.31
46946;BME280;32679;40.810;14.498;2023-03-18T01:51:42;100462.34;;;7.43;74.20
46946;BME280;32679;40.810;14.498;2023-03-18T01:54:11;100464.56;;;7.50;73.78
46946;BME280;32679;40.810;14.498;2023-03-18T01:56:40;100458.28;;;7.41;73.55
46946;BME280;32679;40.810;14.498;2023-03-18T01:59:07;100459.75;;;7.38;73.32
46946;BME280;32679;40.810;14.498;2023-03-18T02:01:47;100457.19;;;7.33;73.79
46946;BME280;32679;40.810;14.498;2023-03-18T02:04:16;100448.91;;;7.24;74.14
46946;BME280;32679;40.810;14.498;2023-03-18T02:06:46;100453.97;;;7.22;74.29
46946;BME280;32679;40.810;14.498;2023-03-18T02:09:12;100456.09;;;7.25;74.42
46946;BME280;32679;40.810;14.498;2023-03-18T02:11:40;100449.06;;;7.28;74.36
46946;BME280;32679;40.810;14.498;2023-03-18T02:14:09;100439.97;;;7.27;74.39
46946;BME280;32679;40.810;14.498;2023-03-18T02:16:43;100451.19;;;7.31;74.81
46946;BME280;32679;40.810;14.498;2023-03-18T02:22:32;100451.31;;;7.34;74.58
46946;BME280;32679;40.810;14.498;2023-03-18T02:25:20;100447.78;;;7.25;74.85
46946;BME280;32679;40.810;14.498;2023-03-18T02:28:01;100451.41;;;7.17;75.75
46946;BME280;32679;40.810;14.498;2023-03-18T02:30:42;100444.53;;;7.23;75.59
46946;BME280;32679;40.810;14.498;2023-03-18T02:33:16;100457.75;;;7.18;76.08
46946;BME280;32679;40.810;14.498;2023-03-18T02:35:46;100452.56;;;7.16;77.00
46946;BME280;32679;40.810;14.498;2023-03-18T02:38:11;100457.63;;;7.14;75.73
46946;BME280;32679;40.810;14.498;2023-03-18T02:40:40;100458.88;;;7.25;75.92
46946;BME280;32679;40.810;14.498;2023-03-18T02:48:25;100463.91;;;7.23;75.72
46946;BME280;32679;40.810;14.498;2023-03-18T02:50:55;100455.16;;;7.13;76.21
46946;BME280;32679;40.810;14.498;2023-03-18T02:53:24;100462.38;;;7.05;77.03
46946;BME280;32679;40.810;14.498;2023-03-18T02:55:50;100459.63;;;7.05;76.79
46946;BME280;32679;40.810;14.498;2023-03-18T02:58:16;100463.34;;;7.09;76.64
46946;BME280;32679;40.810;14.498;2023-03-18T03:00:44;100475.84;;;7.15;77.88
46946;BME280;32679;40.810;14.498;2023-03-18T03:03:13;100472.56;;;7.13;78.11
46946;BME280;32679;40.810;14.498;2023-03-18T03:05:38;100466.75;;;7.06;77.74
46946;BME280;32679;40.810;14.498;2023-03-18T03:08:04;100468.00;;;7.17;76.96
46946;BME280;32679;40.810;14.498;2023-03-18T03:10:33;100474.09;;;7.02;77.45
46946;BME280;32679;40.810;14.498;2023-03-18T03:12:58;100472.94;;;7.03;79.18
46946;BME280;32679;40.810;14.498;2023-03-18T03:15:26;100468.09;;;7.00;77.13
46946;BME280;32679;40.810;14.498;2023-03-18T03:17:59;100474.06;;;7.11;77.95
46946;BME280;32679;40.810;14.498;2023-03-18T03:20:28;100475.72;;;7.03;79.20
46946;BME280;32679;40.810;14.498;2023-03-18T03:22:56;100480.25;;;7.07;77.76
46946;BME280;32679;40.810;14.498;2023-03-18T03:25:25;100474.09;;;7.02;77.75
46946;BME280;32679;40.810;14.498;2023-03-18T03:27:52;100480.63;;;6.97;78.06
46946;BME280;32679;40.810;14.498;2023-03-18T03:30:18;100480.06;;;7.13;77.10
46946;BME280;32679;40.810;14.498;2023-03-18T03:32:46;100483.38;;;7.06;77.33
46946;BME280;32679;40.810;14.498;2023-03-18T03:35:16;100485.97;;;7.02;78.01
46946;BME280;32679;40.810;14.498;2023-03-18T03:37:45;100488.56;;;7.07;78.13
46946;BME280;32679;40.810;14.498;2023-03-18T03:40:14;100485.75;;;7.16;76.88
46946;BME280;32679;40.810;14.498;2023-03-18T03:42:41;100491.00;;;7.09;76.98
46946;BME280;32679;40.810;14.498;2023-03-18T03:45:08;100498.50;;;7.08;78.49
46946;BME280;32679;40.810;14.498;2023-03-18T03:47:37;100493.97;;;7.04;79.04
46946;BME280;32679;40.810;14.498;2023-03-18T03:50:03;100492.13;;;7.08;77.92
46946;BME280;32679;40.810;14.498;2023-03-18T03:52:32;100498.19;;;7.01;78.28
46946;BME280;32679;40.810;14.498;2023-03-18T03:55:04;100498.50;;;7.08;79.56
46946;BME280;32679;40.810;14.498;2023-03-18T03:57:29;100493.47;;;7.02;78.44
46946;BME280;32679;40.810;14.498;2023-03-18T04:00:00;100495.59;;;6.96;80.18
46946;BME280;32679;40.810;14.498;2023-03-18T04:02:31;100500.94;;;7.10;77.62
46946;BME280;32679;40.810;14.498;2023-03-18T04:04:59;100503.59;;;6.98;77.41
46946;BME280;32679;40.810;14.498;2023-03-18T04:07:25;100499.19;;;6.97;78.46
46946;BME280;32679;40.810;14.498;2023-03-18T04:09:50;100499.81;;;7.02;78.68
46946;BME280;32679;40.810;14.498;2023-03-18T04:12:16;100496.72;;;7.04;77.63
46946;BME280;32679;40.810;14.498;2023-03-18T04:14:44;100495.59;;;6.96;78.64
46946;BME280;32679;40.810;14.498;2023-03-18T04:17:12;100499.22;;;6.88;78.66
46946;BME280;32679;40.810;14.498;2023-03-18T04:19:39;100496.41;;;6.97;78.06
46946;BME280;32679;40.810;14.498;2023-03-18T04:22:07;100495.16;;;6.86;78.81
46946;BME280;32679;40.810;14.498;2023-03-18T04:24:37;100503.13;;;6.87;79.67
46946;BME280;32679;40.810;14.498;2023-03-18T04:27:08;100494.94;;;6.99;77.27
46946;BME280;32679;40.810;14.498;2023-03-18T04:29:34;100503.78;;;6.84;77.49
46946;BME280;32679;40.810;14.498;2023-03-18T04:32:04;100500.56;;;6.73;79.27
46946;BME280;32679;40.810;14.498;2023-03-18T04:34:29;100497.97;;;6.77;79.65
46946;BME280;32679;40.810;14.498;2023-03-18T04:36:56;100504.28;;;6.77;78.89
46946;BME280;32679;40.810;14.498;2023-03-18T04:39:23;100505.28;;;6.73;80.20
46946;BME280;32679;40.810;14.498;2023-03-18T04:41:49;100506.09;;;6.73;79.13
46946;BME280;32679;40.810;14.498;2023-03-18T04:44:15;100502.00;;;6.71;79.87
46946;BME280;32679;40.810;14.498;2023-03-18T04:46:48;100505.41;;;6.76;80.18
46946;BME280;32679;40.810;14.498;2023-03-18T04:49:14;100505.28;;;6.73;79.95
46946;BME280;32679;40.810;14.498;2023-03-18T04:51:42;100504.94;;;6.74;80.56
46946;BME280;32679;40.810;14.498;2023-03-18T04:54:10;100504.78;;;6.79;79.92
46946;BME280;32679;40.810;14.498;2023-03-18T04:56:39;100497.63;;;6.70;79.38
46946;BME280;32679;40.810;14.498;2023-03-18T04:59:05;100503.19;;;6.61;79.83
46946;BME280;32679;40.810;14.498;2023-03-18T05:01:35;100511.50;;;6.61;80.17
46946;BME280;32679;40.810;14.498;2023-03-18T05:04:01;100501.72;;;6.64;81.39
46946;BME280;32679;40.810;14.498;2023-03-18T05:06:29;100512.44;;;6.65;80.91
46946;BME280;32679;40.810;14.498;2023-03-18T05:08:56;100511.31;;;6.57;80.67
46946;BME280;32679;40.810;14.498;2023-03-18T05:11:22;100514.56;;;6.68;81.56
46946;BME280;32679;40.810;14.498;2023-03-18T05:13:48;100513.41;;;6.69;81.02
46946;BME280;32679;40.810;14.498;2023-03-18T05:16:16;100519.41;;;6.80;80.86
46946;BME280;32679;40.810;14.498;2023-03-18T05:18:42;100516.31;;;6.81;80.24
46946;BME280;32679;40.810;14.498;2023-03-18T05:21:13;100519.25;;;6.76;80.09
46946;BME280;32679;40.810;14.498;2023-03-18T05:23:39;100518.44;;;6.76;80.36
46946;BME280;32679;40.810;14.498;2023-03-18T05:26:12;100518.63;;;7.18;81.08
46946;BME280;32679;40.810;14.498;2023-03-18T05:28:38;100522.97;;;7.86;77.54
46946;BME280;32679;40.810;14.498;2023-03-18T05:31:09;100519.47;;;8.61;74.55
46946;BME280;32679;40.810;14.498;2023-03-18T05:33:37;100510.56;;;9.25;70.69
46946;BME280;32679;40.810;14.498;2023-03-18T05:36:06;100518.50;;;10.00;67.72
46946;BME280;32679;40.810;14.498;2023-03-18T05:38:33;100523.56;;;10.63;63.65
46946;BME280;32679;40.810;14.498;2023-03-18T05:41:08;100522.66;;;11.34;60.86
46946;BME280;32679;40.810;14.498;2023-03-18T05:43:34;100525.66;;;11.92;58.13
46946;BME280;32679;40.810;14.498;2023-03-18T05:46:05;100528.09;;;12.48;54.80
46946;BME280;32679;40.810;14.498;2023-03-18T05:48:34;100527.25;;;13.09;53.22
46946;BME280;32679;40.810;14.498;2023-03-18T05:51:02;100534.94;;;13.58;51.33
46946;BME280;32679;40.810;14.498;2023-03-18T05:53:30;100521.16;;;13.99;49.47
46946;BME280;32679;40.810;14.498;2023-03-18T05:55:58;100531.22;;;14.34;48.70
46946;BME280;32679;40.810;14.498;2023-03-18T05:58:24;100536.19;;;14.78;47.50
46946;BME280;32679;40.810;14.498;2023-03-18T06:00:50;100533.00;;;15.16;45.64
46946;BME280;32679;40.810;14.498;2023-03-18T06:03:18;100540.34;;;15.76;45.40
46946;BME280;32679;40.810;14.498;2023-03-18T06:05:46;100534.19;;;16.18;43.71
46946;BME280;32679;40.810;14.498;2023-03-18T06:08:16;100541.56;;;16.44;42.92
46946;BME280;32679;40.810;14.498;2023-03-18T06:10:44;100539.00;;;17.05;41.68
46946;BME280;32679;40.810;14.498;2023-03-18T06:13:12;100546.69;;;17.37;41.59
46946;BME280;32679;40.810;14.498;2023-03-18T06:15:40;100546.28;;;17.60;38.39
46946;BME280;32679;40.810;14.498;2023-03-18T06:18:06;100543.44;;;17.27;38.32
46946;BME280;32679;40.810;14.498;2023-03-18T06:20:31;100549.47;;;17.51;38.39
46946;BME280;32679;40.810;14.498;2023-03-18T06:23:00;100552.31;;;18.01;38.15
46946;BME280;32679;40.810;14.498;2023-03-18T06:25:30;100549.53;;;17.79;38.04
46946;BME280;32679;40.810;14.498;2023-03-18T06:27:56;100544.63;;;18.16;37.74
46946;BME280;32679;40.810;14.498;2023-03-18T06:30:26;100553.44;;;18.36;37.90
46946;BME280;32679;40.810;14.498;2023-03-18T06:33:00;100546.22;;;18.20;36.69
46946;BME280;32679;40.810;14.498;2023-03-18T06:35:26;100524.75;;;18.62;36.92
46946;BME280;32679;40.810;14.498;2023-03-18T06:37:53;100560.72;;;19.17;35.90
46946;BME280;32679;40.810;14.498;2023-03-18T06:40:22;100529.75;;;19.10;35.98
46946;BME280;32679;40.810;14.498;2023-03-18T06:42:49;100559.25;;;19.57;35.02
46946;BME280;32679;40.810;14.498;2023-03-18T06:45:15;100557.59;;;19.67;34.60
46946;BME280;32679;40.810;14.498;2023-03-18T06:47:44;100563.25;;;19.63;33.86
46946;BME280;32679;40.810;14.498;2023-03-18T06:50:14;100559.19;;;19.68;33.89
46946;BME280;32679;40.810;14.498;2023-03-18T06:52:42;100557.75;;;19.38;33.49
46946;BME280;32679;40.810;14.498;2023-03-18T06:55:10;100551.44;;;19.20;34.80
46946;BME280;32679;40.810;14.498;2023-03-18T06:57:35;100558.97;;;18.68;34.13
46946;BME280;32679;40.810;14.498;2023-03-18T07:00:01;100548.41;;;18.90;35.28
46946;BME280;32679;40.810;14.498;2023-03-18T07:02:31;100549.88;;;18.06;37.01
46946;BME280;32679;40.810;14.498;2023-03-18T07:05:03;100557.34;;;18.74;35.61
46946;BME280;32679;40.810;14.498;2023-03-18T07:07:29;100557.50;;;17.24;37.69
46946;BME280;32679;40.810;14.498;2023-03-18T07:09:57;100558.75;;;17.84;37.08
46946;BME280;32679;40.810;14.498;2023-03-18T07:12:23;100566.75;;;18.24;35.33
46946;BME280;32679;40.810;14.498;2023-03-18T07:14:55;100557.50;;;18.27;36.13
46946;BME280;32679;40.810;14.498;2023-03-18T07:17:23;100565.19;;;18.02;36.48
46946;BME280;32679;40.810;14.498;2023-03-18T07:19:50;100563.56;;;18.01;36.99
46946;BME280;32679;40.810;14.498;2023-03-18T07:22:16;100565.56;;;17.33;38.82
46946;BME280;32679;40.810;14.498;2023-03-18T07:24:42;100561.13;;;17.46;38.08
46946;BME280;32679;40.810;14.498;2023-03-18T07:27:11;100563.91;;;18.24;37.11
46946;BME280;32679;40.810;14.498;2023-03-18T07:29:40;100559.94;;;17.40;38.12
46946;BME280;32679;40.810;14.498;2023-03-18T07:32:11;100556.69;;;17.20;38.63
46946;BME280;32679;40.810;14.498;2023-03-18T07:34:41;100549.50;;;17.44;38.38
46946;BME280;32679;40.810;14.498;2023-03-18T07:37:13;100565.97;;;17.67;37.44
46946;BME280;32679;40.810;14.498;2023-03-18T07:39:41;100565.59;;;17.90;37.59
46946;BME280;32679;40.810;14.498;2023-03-18T07:42:13;100558.34;;;17.89;37.99
46946;BME280;32679;40.810;14.498;2023-03-18T07:44:44;100566.38;;;17.94;38.12
46946;BME280;32679;40.810;14.498;2023-03-18T07:47:12;100568.28;;;17.04;38.82
46946;BME280;32679;40.810;14.498;2023-03-18T07:49:39;100563.53;;;17.33;38.47
46946;BME280;32679;40.810;14.498;2023-03-18T07:52:14;100553.47;;;17.21;39.00
46946;BME280;32679;40.810;14.498;2023-03-18T07:54:40;100560.63;;;16.90;39.21
46946;BME280;32679;40.810;14.498;2023-03-18T07:57:08;100553.09;;;17.51;38.45
46946;BME280;32679;40.810;14.498;2023-03-18T07:59:39;100560.75;;;17.44;38.51
46946;BME280;32679;40.810;14.498;2023-03-18T08:02:06;100560.75;;;17.83;38.04
46946;BME280;32679;40.810;14.498;2023-03-18T08:04:35;100555.94;;;17.59;38.66
46946;BME280;32679;40.810;14.498;2023-03-18T08:07:03;100556.75;;;17.77;38.67
46946;BME280;32679;40.810;14.498;2023-03-18T08:09:29;100564.34;;;18.23;37.61
46946;BME280;32679;40.810;14.498;2023-03-18T08:11:54;100563.56;;;18.01;38.05
46946;BME280;32679;40.810;14.498;2023-03-18T08:14:22;100561.88;;;18.36;37.44
46946;BME280;32679;40.810;14.498;2023-03-18T08:16:48;100565.63;;;19.06;37.16
46946;BME280;32679;40.810;14.498;2023-03-18T08:19:14;100559.25;;;19.54;35.48
46946;BME280;32679;40.810;14.498;2023-03-18T08:21:45;100560.00;;;19.65;35.43
46946;BME280;32679;40.810;14.498;2023-03-18T08:24:10;100565.75;;;19.51;34.94
46946;BME280;32679;40.810;14.498;2023-03-18T08:26:36;100559.97;;;19.72;36.10
46946;BME280;32679;40.810;14.498;2023-03-18T08:29:02;100561.13;;;19.16;36.87
46946;BME280;32679;40.810;14.498;2023-03-18T08:31:30;100555.63;;;18.98;36.80
46946;BME280;32679;40.810;14.498;2023-03-18T08:33:58;100566.53;;;18.89;37.13
46946;BME280;32679;40.810;14.498;2023-03-18T08:36:26;100549.25;;;19.46;36.74
46946;BME280;32679;40.810;14.498;2023-03-18T08:38:55;100559.63;;;20.46;34.67
46946;BME280;32679;40.810;14.498;2023-03-18T08:41:23;100557.22;;;20.48;34.74
46946;BME280;32679;40.810;14.498;2023-03-18T08:43:53;100555.72;;;21.01;34.38
46946;BME280;32679;40.810;14.498;2023-03-18T08:46:24;100560.03;;;21.09;34.09
46946;BME280;32679;40.810;14.498;2023-03-18T08:48:49;100563.63;;;20.82;33.62
46946;BME280;32679;40.810;14.498;2023-03-18T08:51:20;100556.53;;;21.55;33.27
46946;BME280;32679;40.810;14.498;2023-03-18T08:53:49;100561.47;;;21.98;32.08
46946;BME280;32679;40.810;14.498;2023-03-18T08:56:17;100562.50;;;22.31;32.08
46946;BME280;32679;40.810;14.498;2023-03-18T08:58:42;100560.44;;;21.11;33.43
46946;BME280;32679;40.810;14.498;2023-03-18T09:01:12;100563.19;;;20.53;34.84
46946;BME280;32679;40.810;14.498;2023-03-18T09:03:40;100555.34;;;20.30;34.90
46946;BME280;32679;40.810;14.498;2023-03-18T09:06:11;100555.63;;;20.77;33.98
46946;BME280;32679;40.810;14.498;2023-03-18T09:08:41;100558.13;;;21.29;32.77
46946;BME280;32679;40.810;14.498;2023-03-18T09:11:07;100559.84;;;20.92;33.13
46946;BME280;32679;40.810;14.498;2023-03-18T09:13:39;100560.53;;;20.73;34.99
46946;BME280;32679;40.810;14.498;2023-03-18T09:16:08;100559.38;;;21.55;33.36
46946;BME280;32679;40.810;14.498;2023-03-18T09:18:35;100557.69;;;21.04;34.53
46946;BME280;32679;40.810;14.498;2023-03-18T09:21:05;100564.34;;;20.18;34.98
46946;BME280;32679;40.810;14.498;2023-03-18T09:23:34;100548.19;;;19.25;36.91
46946;BME280;32679;40.810;14.498;2023-03-18T09:26:02;100555.25;;;19.51;36.32
46946;BME280;32679;40.810;14.498;2023-03-18T09:28:33;100556.81;;;19.63;35.91
46946;BME280;32679;40.810;14.498;2023-03-18T09:30:59;100556.63;;;19.81;35.85
46946;BME280;32679;40.810;14.498;2023-03-18T09:33:29;100555.50;;;20.16;36.09
46946;BME280;32679;40.810;14.498;2023-03-18T09:36:00;100549.25;;;20.70;34.45
46946;BME280;32679;40.810;14.498;2023-03-18T09:38:25;100543.69;;;20.93;33.87
46946;BME280;32679;40.810;14.498;2023-03-18T09:46:24;100555.53;;;19.71;35.83
46946;BME280;32679;40.810;14.498;2023-03-18T09:57:26;100552.38;;;20.79;35.67
46946;BME280;32679;40.810;14.498;2023-03-18T10:00:08;100543.06;;;20.44;34.47
46946;BME280;32679;40.810;14.498;2023-03-18T10:02:47;100546.88;;;20.68;33.74
46946;BME280;32679;40.810;14.498;2023-03-18T10:08:12;100536.50;;;20.58;34.49
46946;BME280;32679;40.810;14.498;2023-03-18T10:10:44;100523.06;;;20.31;33.44
46946;BME280;32679;40.810;14.498;2023-03-18T10:13:32;100542.13;;;20.61;33.55
46946;BME280;32679;40.810;14.498;2023-03-18T10:16:05;100539.25;;;20.92;33.30
46946;BME280;32679;40.810;14.498;2023-03-18T10:18:39;100537.53;;;20.71;33.99
46946;BME280;32679;40.810;14.498;2023-03-18T10:21:19;100539.78;;;20.53;34.17
46946;BME280;32679;40.810;14.498;2023-03-18T10:26:33;100530.78;;;20.24;34.96
46946;BME280;32679;40.810;14.498;2023-03-18T10:35:29;100527.69;;;21.64;33.55
46946;BME280;32679;40.810;14.498;2023-03-18T10:38:24;100532.59;;;21.36;33.08
46946;BME280;32679;40.810;14.498;2023-03-18T10:40:35;100525.72;;;20.08;35.91
46946;BME280;32679;40.810;14.498;2023-03-18T10:43:05;100522.28;;;20.27;34.61
46946;BME280;32679;40.810;14.498;2023-03-18T10:45:39;100525.56;;;20.60;33.83
46946;BME280;32679;40.810;14.498;2023-03-18T10:48:16;100534.97;;;20.80;34.08
46946;BME280;32679;40.810;14.498;2023-03-18T10:56:11;100516.53;;;20.72;33.29
46946;BME280;32679;40.810;14.498;2023-03-18T10:58:43;100515.69;;;21.29;32.65
46946;BME280;32679;40.810;14.498;2023-03-18T11:01:17;100520.03;;;21.61;32.86
46946;BME280;32679;40.810;14.498;2023-03-18T11:03:52;100512.78;;;21.83;32.78
46946;BME280;32679;40.810;14.498;2023-03-18T11:06:34;100507.03;;;20.55;33.93
46946;BME280;32679;40.810;14.498;2023-03-18T11:09:14;100503.19;;;20.73;34.23
46946;BME280;32679;40.810;14.498;2023-03-18T11:11:45;100508.78;;;20.76;34.26
46946;BME280;32679;40.810;14.498;2023-03-18T11:14:19;100508.25;;;20.54;34.42
46946;BME280;32679;40.810;14.498;2023-03-18T11:16:55;100507.66;;;20.70;34.39
46946;BME280;32679;40.810;14.498;2023-03-18T11:24:38;100502.03;;;20.97;33.74
46946;BME280;32679;40.810;14.498;2023-03-18T11:29:43;100498.34;;;21.27;32.84
46946;BME280;32679;40.810;14.498;2023-03-18T11:32:31;100492.25;;;21.02;32.53
46946;BME280;32679;40.810;14.498;2023-03-18T11:35:06;100487.34;;;21.06;33.02
46946;BME280;32679;40.810;14.498;2023-03-18T11:37:38;100461.47;;;20.50;34.15
46946;BME280;32679;40.810;14.498;2023-03-18T11:42:42;100477.16;;;20.20;34.80
46946;BME280;32679;40.810;14.498;2023-03-18T11:48:01;100463.88;;;19.83;35.67
46946;BME280;32679;40.810;14.498;2023-03-18T11:50:38;100472.84;;;20.42;34.94
46946;BME280;32679;40.810;14.498;2023-03-18T12:15:39;100440.50;;;18.86;38.61
46946;BME280;32679;40.810;14.498;2023-03-18T12:27:57;100430.03;;;18.82;39.46
46946;BME280;32679;40.810;14.498;2023-03-18T12:30:02;100430.66;;;19.08;39.92
46946;BME280;32679;40.810;14.498;2023-03-18T12:32:49;100429.47;;;19.05;38.11
46946;BME280;32679;40.810;14.498;2023-03-18T12:35:43;100403.53;;;19.25;37.08
46946;BME280;32679;40.810;14.498;2023-03-18T12:38:41;100419.25;;;19.22;39.10
46946;BME280;32679;40.810;14.498;2023-03-18T12:47:14;100415.44;;;18.95;41.22
46946;BME280;32679;40.810;14.498;2023-03-18T12:50:11;100413.84;;;18.97;40.99
46946;BME280;32679;40.810;14.498;2023-03-18T12:52:41;100417.06;;;18.96;41.79
46946;BME280;32679;40.810;14.498;2023-03-18T12:55:26;100416.84;;;18.65;42.77
46946;BME280;32679;40.810;14.498;2023-03-18T12:57:57;100409.19;;;18.66;43.67
46946;BME280;32679;40.810;14.498;2023-03-18T13:01:34;100408.53;;;18.40;43.24
46946;BME280;32679;40.810;14.498;2023-03-18T13:03:49;100402.16;;;18.25;42.88
46946;BME280;32679;40.810;14.498;2023-03-18T13:06:37;100403.81;;;18.16;44.33
46946;BME280;32679;40.810;14.498;2023-03-18T13:17:36;100396.59;;;18.18;43.52
46946;BME280;32679;40.810;14.498;2023-03-18T13:25:43;100401.25;;;18.50;42.75
46946;BME280;32679;40.810;14.498;2023-03-18T13:31:12;100397.91;;;17.89;42.19
46946;BME280;32679;40.810;14.498;2023-03-18T13:36:25;100407.19;;;17.86;42.93
46946;BME280;32679;40.810;14.498;2023-03-18T13:44:43;100400.38;;;18.56;41.73
46946;BME280;32679;40.810;14.498;2023-03-18T13:47:20;100398.78;;;18.59;41.54
46946;BME280;32679;40.810;14.498;2023-03-18T13:49:46;100392.75;;;18.53;41.66
46946;BME280;32679;40.810;14.498;2023-03-18T13:52:39;100393.03;;;18.80;40.75
46946;BME280;32679;40.810;14.498;2023-03-18T13:55:29;100392.06;;;18.98;40.56
46946;BME280;32679;40.810;14.498;2023-03-18T14:00:37;100398.31;;;17.91;41.73
46946;BME280;32679;40.810;14.498;2023-03-18T14:03:17;100383.72;;;18.10;41.67
46946;BME280;32679;40.810;14.498;2023-03-18T14:05:46;100387.78;;;18.09;41.81
46946;BME280;32679;40.810;14.498;2023-03-18T14:17:00;100362.78;;;18.18;40.46
46946;BME280;32679;40.810;14.498;2023-03-18T14:19:30;100375.03;;;17.72;40.68
46946;BME280;32679;40.810;14.498;2023-03-18T14:22:20;100371.41;;;17.68;40.71
46946;BME280;32679;40.810;14.498;2023-03-18T14:25:08;100379.03;;;17.68;39.26
46946;BME280;32679;40.810;14.498;2023-03-18T14:27:47;100383.16;;;17.17;41.65
46946;BME280;32679;40.810;14.498;2023-03-18T14:36:08;100381.53;;;17.34;44.29
46946;BME280;32679;40.810;14.498;2023-03-18T14:38:43;100383.91;;;17.49;45.15
46946;BME280;32679;40.810;14.498;2023-03-18T14:41:22;100382.72;;;17.54;46.91
46946;BME280;32679;40.810;14.498;2023-03-18T14:46:41;100378.69;;;17.55;46.19
46946;BME280;32679;40.810;14.498;2023-03-18T14:49:28;100388.78;;;17.24;45.81
46946;BME280;32679;40.810;14.498;2023-03-18T14:51:57;100381.53;;;17.48;46.02
46946;BME280;32679;40.810;14.498;2023-03-18T14:54:31;100376.31;;;17.32;44.60
46946;BME280;32679;40.810;14.498;2023-03-18T14:57:01;100385.97;;;17.42;45.00
46946;BME280;32679;40.810;14.498;2023-03-18T14:59:28;100373.91;;;17.31;46.94
46946;BME280;32679;40.810;14.498;2023-03-18T15:01:56;100377.53;;;17.27;47.88
46946;BME280;32679;40.810;14.498;2023-03-18T15:04:26;100373.91;;;17.31;47.67
46946;BME280;32679;40.810;14.498;2023-03-18T15:06:59;100378.34;;;17.14;48.75
46946;BME280;32679;40.810;14.498;2023-03-18T15:09:27;100373.50;;;17.32;48.87
46946;BME280;32679;40.810;14.498;2023-03-18T15:11:54;100374.31;;;16.68;51.66
46946;BME280;32679;40.810;14.498;2023-03-18T15:17:14;100372.31;;;17.08;50.49
46946;BME280;32679;40.810;14.498;2023-03-18T15:19:43;100369.06;;;16.70;52.35
46946;BME280;32679;40.810;14.498;2023-03-18T15:22:19;100364.69;;;16.98;50.96
46946;BME280;32679;40.810;14.498;2023-03-18T15:24:46;100361.03;;;16.62;52.45